sensor_id;sensor_type;location;lat;lon;timestamp;pressure;altitude;pressure_sealevel;temperature;humidity
35419;BME280;21525;41.240;16.500;2024-03-08T00:00:11;101524.97;;;16.16;66.91
35419;BME280;21525;41.240;16.500;2024-03-08T00:02:41;101518.28;;;16.02;67.13
35419;BME280;21525;41.240;16.500;2024-03-08T00:05:08;101519.59;;;16.22;65.96
35419;BME280;21525;41.240;16.500;2024-03-08T00:07:35;101518.75;;;15.81;67.50
35419;BME280;21525;41.240;16.500;2024-03-08T00:10:06;101526.97;;;15.64;68.08
35419;BME280;21525;41.240;16.500;2024-03-08T00:12:33;101515.66;;;16.02;66.95
35419;BME280;21525;41.240;16.500;2024-03-08T00:14:58;101517.13;;;16.51;65.33
35419;BME280;21525;41.240;16.500;2024-03-08T00:17:24;101515.31;;;16.18;66.14
35419;BME280;21525;41.240;16.500;2024-03-08T00:19:53;101518.91;;;16.13;66.24
35419;BME280;21525;41.240;16.500;2024-03-08T00:22:19;101521.44;;;16.17;65.70
35419;BME280;21525;41.240;16.500;2024-03-08T00:24:45;101515.91;;;16.63;65.07
35419;BME280;21525;41.240;16.500;2024-03-08T00:27:11;101517.31;;;16.06;66.24
35419;BME280;21525;41.240;16.500;2024-03-08T00:29:37;101516.16;;;16.18;66.04
35419;BME280;21525;41.240;16.500;2024-03-08T00:32:04;101515.38;;;16.50;65.52
35419;BME280;21525;41.240;16.500;2024-03-08T00:34:30;101519.78;;;16.50;64.89
35419;BME280;21525;41.240;16.500;2024-03-08T00:36:57;101520.13;;;16.34;64.64
35419;BME280;21525;41.240;16.500;2024-03-08T00:39:23;101515.97;;;16.61;64.64
35419;BME280;21525;41.240;16.500;2024-03-08T00:41:51;101505.84;;;16.82;64.68
35419;BME280;21525;41.240;16.500;2024-03-08T00:44:16;101515.38;;;16.50;64.18
35419;BME280;21525;41.240;16.500;2024-03-08T00:46:42;101508.13;;;16.94;63.79
35419;BME280;21525;41.240;16.500;2024-03-08T00:49:09;101515.84;;;16.67;63.65
35419;BME280;21525;41.240;16.500;2024-03-08T00:51:34;101521.22;;;16.61;63.71
35419;BME280;21525;41.240;16.500;2024-03-08T00:54:01;101515.25;;;16.56;63.98
35419;BME280;21525;41.240;16.500;2024-03-08T00:56:27;101513.28;;;16.29;64.92
35419;BME280;21525;41.240;16.500;2024-03-08T00:58:53;101509.66;;;16.70;63.10
35419;BME280;21525;41.240;16.500;2024-03-08T01:01:19;101506.63;;;16.51;63.02
35419;BME280;21525;41.240;16.500;2024-03-08T01:03:45;101501.63;;;16.76;63.55
35419;BME280;21525;41.240;16.500;2024-03-08T01:06:11;101502.44;;;16.42;63.73
35419;BME280;21525;41.240;16.500;2024-03-08T01:08:37;101503.84;;;16.22;63.90
35419;BME280;21525;41.240;16.500;2024-03-08T01:11:04;101506.63;;;16.14;65.53
35419;BME280;21525;41.240;16.500;2024-03-08T01:13:30;101502.91;;;16.58;63.98
35419;BME280;21525;41.240;16.500;2024-03-08T01:15:56;101505.81;;;16.12;65.07
35419;BME280;21525;41.240;16.500;2024-03-08T01:18:22;101504.56;;;16.27;64.08
35419;BME280;21525;41.240;16.500;2024-03-08T01:20:48;101499.00;;;16.03;64.37
35419;BME280;21525;41.240;16.500;2024-03-08T01:23:14;101499.94;;;16.38;64.34
35419;BME280;21525;41.240;16.500;2024-03-08T01:25:39;101501.66;;;16.39;64.08
35419;BME280;21525;41.240;16.500;2024-03-08T01:28:07;101492.66;;;16.49;63.79
35419;BME280;21525;41.240;16.500;2024-03-08T01:30:33;101491.72;;;16.16;64.24
35419;BME280;21525;41.240;16.500;2024-03-08T01:33:00;101486.38;;;16.21;65.10
35419;BME280;21525;41.240;16.500;2024-03-08T01:35:26;101481.09;;;16.56;63.59
35419;BME280;21525;41.240;16.500;2024-03-08T01:37:53;101473.16;;;16.92;62.63
35419;BME280;21525;41.240;16.500;2024-03-08T01:40:19;101484.34;;;16.66;62.55
35419;BME280;21525;41.240;16.500;2024-03-08T01:42:44;101484.25;;;16.70;62.29
35419;BME280;21525;41.240;16.500;2024-03-08T01:45:10;101487.16;;;15.87;65.14
35419;BME280;21525;41.240;16.500;2024-03-08T01:47:37;101480.84;;;15.94;65.79
35419;BME280;21525;41.240;16.500;2024-03-08T01:50:03;101487.69;;;16.37;64.67
35419;BME280;21525;41.240;16.500;2024-03-08T01:52:32;101481.19;;;16.18;65.15
35419;BME280;21525;41.240;16.500;2024-03-08T01:55:02;101484.47;;;16.26;64.39
35419;BME280;21525;41.240;16.500;2024-03-08T01:57:34;101489.25;;;16.45;65.04
35419;BME280;21525;41.240;16.500;2024-03-08T02:00:01;101491.63;;;16.21;64.73
35419;BME280;21525;41.240;16.500;2024-03-08T02:02:32;101488.59;;;16.71;63.63
35419;BME280;21525;41.240;16.500;2024-03-08T02:05:00;101490.47;;;16.66;63.33
35419;BME280;21525;41.240;16.500;2024-03-08T02:07:26;101496.28;;;16.43;63.96
35419;BME280;21525;41.240;16.500;2024-03-08T02:09:52;101495.28;;;16.13;65.05
35419;BME280;21525;41.240;16.500;2024-03-08T02:12:18;101494.03;;;16.28;65.19
35419;BME280;21525;41.240;16.500;2024-03-08T02:14:46;101485.50;;;16.20;65.23
35419;BME280;21525;41.240;16.500;2024-03-08T02:17:12;101487.88;;;15.92;65.65
35419;BME280;21525;41.240;16.500;2024-03-08T02:19:38;101490.72;;;16.22;65.16
35419;BME280;21525;41.240;16.500;2024-03-08T02:22:05;101486.91;;;16.33;64.50
35419;BME280;21525;41.240;16.500;2024-03-08T02:24:32;101491.28;;;15.97;66.07
35419;BME280;21525;41.240;16.500;2024-03-08T02:26:58;101491.81;;;16.11;65.08
35419;BME280;21525;41.240;16.500;2024-03-08T02:29:24;101484.78;;;16.49;63.62
35419;BME280;21525;41.240;16.500;2024-03-08T02:31:51;101479.59;;;16.46;64.23
35419;BME280;21525;41.240;16.500;2024-03-08T02:34:17;101478.84;;;16.41;64.44
35419;BME280;21525;41.240;16.500;2024-03-08T02:36:42;101487.44;;;16.12;66.04
35419;BME280;21525;41.240;16.500;2024-03-08T02:39:08;101480.91;;;16.62;64.40
35419;BME280;21525;41.240;16.500;2024-03-08T02:41:36;101481.09;;;16.56;64.38
35419;BME280;21525;41.240;16.500;2024-03-08T02:44:02;101475.63;;;16.30;64.99
35419;BME280;21525;41.240;16.500;2024-03-08T02:46:29;101478.28;;;16.62;64.46
35419;BME280;21525;41.240;16.500;2024-03-08T02:48:55;101479.63;;;16.44;64.27
35419;BME280;21525;41.240;16.500;2024-03-08T02:51:21;101474.75;;;16.63;63.89
35419;BME280;21525;41.240;16.500;2024-03-08T02:53:47;101478.59;;;16.52;63.87
35419;BME280;21525;41.240;16.500;2024-03-08T02:56:15;101470.53;;;16.58;63.35
35419;BME280;21525;41.240;16.500;2024-03-08T02:58:42;101470.03;;;16.08;65.48
35419;BME280;21525;41.240;16.500;2024-03-08T03:01:09;101471.50;;;16.20;65.00
35419;BME280;21525;41.240;16.500;2024-03-08T03:03:36;101470.00;;;16.09;65.25
35419;BME280;21525;41.240;16.500;2024-03-08T03:06:02;101476.34;;;15.99;65.66
35419;BME280;21525;41.240;16.500;2024-03-08T03:08:28;101474.66;;;15.97;64.97
35419;BME280;21525;41.240;16.500;2024-03-08T03:10:54;101484.31;;;16.32;64.52
35419;BME280;21525;41.240;16.500;2024-03-08T03:13:23;101481.72;;;16.30;64.08
35419;BME280;21525;41.240;16.500;2024-03-08T03:15:50;101485.69;;;16.12;65.28
35419;BME280;21525;41.240;16.500;2024-03-08T03:18:17;101481.44;;;15.68;65.92
35419;BME280;21525;41.240;16.500;2024-03-08T03:20:46;101477.13;;;15.66;66.75
35419;BME280;21525;41.240;16.500;2024-03-08T03:23:12;101485.25;;;15.54;66.75
35419;BME280;21525;41.240;16.500;2024-03-08T03:25:39;101483.91;;;15.76;66.76
35419;BME280;21525;41.240;16.500;2024-03-08T03:28:07;101486.78;;;15.22;68.01
35419;BME280;21525;41.240;16.500;2024-03-08T03:30:33;101475.78;;;15.46;67.57
35419;BME280;21525;41.240;16.500;2024-03-08T03:33:02;101479.94;;;15.58;66.32
35419;BME280;21525;41.240;16.500;2024-03-08T03:35:32;101480.41;;;15.34;67.35
35419;BME280;21525;41.240;16.500;2024-03-08T03:37:58;101480.25;;;15.41;67.02
35419;BME280;21525;41.240;16.500;2024-03-08T03:40:34;101464.03;;;15.64;66.56
35419;BME280;21525;41.240;16.500;2024-03-08T03:43:00;101478.69;;;15.31;66.90
35419;BME280;21525;41.240;16.500;2024-03-08T03:45:27;101468.88;;;15.42;67.08
35419;BME280;21525;41.240;16.500;2024-03-08T03:47:52;101466.91;;;15.52;67.29
35419;BME280;21525;41.240;16.500;2024-03-08T03:50:19;101460.09;;;15.02;67.99
35419;BME280;21525;41.240;16.500;2024-03-08T03:52:46;101461.44;;;15.23;66.90
35419;BME280;21525;41.240;16.500;2024-03-08T03:55:13;101465.28;;;15.46;67.00
35419;BME280;21525;41.240;16.500;2024-03-08T03:57:39;101455.22;;;15.68;65.94
35419;BME280;21525;41.240;16.500;2024-03-08T04:00:06;101455.28;;;15.24;66.85
35419;BME280;21525;41.240;16.500;2024-03-08T04:02:39;101457.19;;;15.59;66.52
35419;BME280;21525;41.240;16.500;2024-03-08T04:05:06;101465.41;;;15.40;66.45
35419;BME280;21525;41.240;16.500;2024-03-08T04:07:32;101459.66;;;15.65;65.68
35419;BME280;21525;41.240;16.500;2024-03-08T04:09:58;101464.72;;;15.31;66.56
35419;BME280;21525;41.240;16.500;2024-03-08T04:12:24;101458.78;;;15.64;66.31
35419;BME280;21525;41.240;16.500;2024-03-08T04:14:49;101461.91;;;15.41;66.47
35419;BME280;21525;41.240;16.500;2024-03-08T04:17:15;101456.25;;;15.61;66.35
35419;BME280;21525;41.240;16.500;2024-03-08T04:19:42;101465.84;;;15.62;66.21
35419;BME280;21525;41.240;16.500;2024-03-08T04:22:08;101463.03;;;15.28;66.61
35419;BME280;21525;41.240;16.500;2024-03-08T04:24:34;101465.41;;;15.40;66.61
35419;BME280;21525;41.240;16.500;2024-03-08T04:26:59;101468.84;;;14.99;67.54
35419;BME280;21525;41.240;16.500;2024-03-08T04:29:25;101463.41;;;15.10;67.14
35419;BME280;21525;41.240;16.500;2024-03-08T04:31:52;101466.69;;;15.21;66.71
35419;BME280;21525;41.240;16.500;2024-03-08T04:34:21;101465.31;;;15.02;67.31
35419;BME280;21525;41.240;16.500;2024-03-08T04:36:48;101473.47;;;14.88;68.30
35419;BME280;21525;41.240;16.500;2024-03-08T04:39:14;101471.06;;;14.76;68.90
35419;BME280;21525;41.240;16.500;2024-03-08T04:41:42;101467.72;;;15.14;67.25
35419;BME280;21525;41.240;16.500;2024-03-08T04:44:11;101471.78;;;15.27;67.13
35419;BME280;21525;41.240;16.500;2024-03-08T04:46:38;101465.91;;;15.18;67.61
35419;BME280;21525;41.240;16.500;2024-03-08T04:49:04;101472.88;;;14.72;68.46
35419;BME280;21525;41.240;16.500;2024-03-08T04:51:29;101467.94;;;15.02;67.77
35419;BME280;21525;41.240;16.500;2024-03-08T04:53:55;101476.75;;;14.98;68.07
35419;BME280;21525;41.240;16.500;2024-03-08T04:56:22;101471.44;;;15.01;67.53
35419;BME280;21525;41.240;16.500;2024-03-08T04:58:48;101472.66;;;15.28;66.95
35419;BME280;21525;41.240;16.500;2024-03-08T05:01:14;101480.50;;;15.28;66.57
35419;BME280;21525;41.240;16.500;2024-03-08T05:03:41;101482.69;;;14.61;68.44
35419;BME280;21525;41.240;16.500;2024-03-08T05:06:06;101489.38;;;15.24;67.66
35419;BME280;21525;41.240;16.500;2024-03-08T05:08:32;101488.06;;;15.00;67.62
35419;BME280;21525;41.240;16.500;2024-03-08T05:10:58;101485.03;;;15.21;66.53
35419;BME280;21525;41.240;16.500;2024-03-08T05:13:25;101490.34;;;14.72;67.38
35419;BME280;21525;41.240;16.500;2024-03-08T05:15:51;101491.31;;;14.65;68.15
35419;BME280;21525;41.240;16.500;2024-03-08T05:18:16;101491.59;;;14.97;67.00
35419;BME280;21525;41.240;16.500;2024-03-08T05:20:42;101498.59;;;14.97;67.62
35419;BME280;21525;41.240;16.500;2024-03-08T05:23:08;101489.59;;;14.64;68.57
35419;BME280;21525;41.240;16.500;2024-03-08T05:25:34;101495.59;;;14.70;68.52
35419;BME280;21525;41.240;16.500;2024-03-08T05:28:00;101496.41;;;14.74;68.23
35419;BME280;21525;41.240;16.500;2024-03-08T05:30:26;101485.59;;;14.94;66.93
35419;BME280;21525;41.240;16.500;2024-03-08T05:32:52;101486.41;;;15.39;65.29
35419;BME280;21525;41.240;16.500;2024-03-08T05:35:17;101487.47;;;14.86;67.05
35419;BME280;21525;41.240;16.500;2024-03-08T05:37:43;101488.34;;;15.29;65.90
35419;BME280;21525;41.240;16.500;2024-03-08T05:40:09;101486.28;;;15.45;65.29
35419;BME280;21525;41.240;16.500;2024-03-08T05:42:36;101486.50;;;15.34;65.66
35419;BME280;21525;41.240;16.500;2024-03-08T05:45:05;101494.28;;;15.39;64.39
35419;BME280;21525;41.240;16.500;2024-03-08T05:47:36;101494.34;;;15.36;65.15
35419;BME280;21525;41.240;16.500;2024-03-08T05:50:03;101498.94;;;15.25;65.38
35419;BME280;21525;41.240;16.500;2024-03-08T05:52:29;101492.34;;;15.90;64.39
35419;BME280;21525;41.240;16.500;2024-03-08T05:54:55;101494.06;;;18.42;56.00
35419;BME280;21525;41.240;16.500;2024-03-08T05:57:21;101482.56;;;19.19;52.56
35419;BME280;21525;41.240;16.500;2024-03-08T05:59:48;101489.38;;;20.38;50.13
35419;BME280;21525;41.240;16.500;2024-03-08T06:02:14;101489.63;;;20.74;49.45
35419;BME280;21525;41.240;16.500;2024-03-08T06:04:47;101486.19;;;21.32;46.79
35419;BME280;21525;41.240;16.500;2024-03-08T06:07:13;101485.69;;;22.35;45.04
35419;BME280;21525;41.240;16.500;2024-03-08T06:09:39;101482.09;;;22.53;44.85
35419;BME280;21525;41.240;16.500;2024-03-08T06:12:05;101479.31;;;23.57;42.28
35419;BME280;21525;41.240;16.500;2024-03-08T06:14:32;101477.28;;;24.23;41.44
35419;BME280;21525;41.240;16.500;2024-03-08T06:16:58;101485.53;;;24.34;41.36
35419;BME280;21525;41.240;16.500;2024-03-08T06:19:24;101475.19;;;24.44;39.88
35419;BME280;21525;41.240;16.500;2024-03-08T06:21:49;101473.91;;;25.09;39.36
35419;BME280;21525;41.240;16.500;2024-03-08T06:24:15;101489.75;;;25.54;38.31
35419;BME280;21525;41.240;16.500;2024-03-08T06:26:41;101486.31;;;25.80;37.94
35419;BME280;21525;41.240;16.500;2024-03-08T06:29:07;101482.44;;;26.77;37.28
35419;BME280;21525;41.240;16.500;2024-03-08T06:31:32;101478.91;;;26.52;36.92
35419;BME280;21525;41.240;16.500;2024-03-08T06:33:58;101488.34;;;27.08;36.14
35419;BME280;21525;41.240;16.500;2024-03-08T06:36:24;101488.63;;;26.65;36.74
35419;BME280;21525;41.240;16.500;2024-03-08T06:38:50;101492.94;;;26.93;36.23
35419;BME280;21525;41.240;16.500;2024-03-08T06:41:16;101483.28;;;28.38;34.52
35419;BME280;21525;41.240;16.500;2024-03-08T06:43:43;101481.19;;;28.31;34.53
35419;BME280;21525;41.240;16.500;2024-03-08T06:46:09;101489.09;;;27.10;35.82
35419;BME280;21525;41.240;16.500;2024-03-08T06:48:35;101491.38;;;28.02;34.53
35419;BME280;21525;41.240;16.500;2024-03-08T06:51:03;101495.91;;;28.25;34.74
35419;BME280;21525;41.240;16.500;2024-03-08T06:53:30;101486.25;;;29.37;33.58
35419;BME280;21525;41.240;16.500;2024-03-08T06:55:56;101493.00;;;30.40;32.05
35419;BME280;21525;41.240;16.500;2024-03-08T06:58:23;101500.81;;;29.46;33.01
35419;BME280;21525;41.240;16.500;2024-03-08T07:00:48;101496.78;;;29.52;33.15
35419;BME280;21525;41.240;16.500;2024-03-08T07:03:18;101495.16;;;29.71;32.93
35419;BME280;21525;41.240;16.500;2024-03-08T07:05:44;101499.59;;;31.20;31.50
35419;BME280;21525;41.240;16.500;2024-03-08T07:08:09;101490.91;;;31.67;30.57
35419;BME280;21525;41.240;16.500;2024-03-08T07:10:35;101493.69;;;30.22;31.96
35419;BME280;21525;41.240;16.500;2024-03-08T07:13:02;101493.00;;;30.08;32.40
35419;BME280;21525;41.240;16.500;2024-03-08T07:15:28;101491.22;;;30.83;31.54
35419;BME280;21525;41.240;16.500;2024-03-08T07:17:54;101493.13;;;31.22;30.62
35419;BME280;21525;41.240;16.500;2024-03-08T07:20:21;101492.31;;;31.31;31.02
35419;BME280;21525;41.240;16.500;2024-03-08T07:22:47;101488.16;;;32.27;29.98
35419;BME280;21525;41.240;16.500;2024-03-08T07:25:14;101492.94;;;32.52;29.47
35419;BME280;21525;41.240;16.500;2024-03-08T07:27:50;101493.00;;;31.03;31.14
35419;BME280;21525;41.240;16.500;2024-03-08T07:30:17;101485.97;;;32.88;29.59
35419;BME280;21525;41.240;16.500;2024-03-08T07:33:03;101489.97;;;31.48;30.69
35419;BME280;21525;41.240;16.500;2024-03-08T07:35:29;101486.72;;;32.03;30.36
35419;BME280;21525;41.240;16.500;2024-03-08T07:37:56;101489.81;;;31.99;30.34
35419;BME280;21525;41.240;16.500;2024-03-08T07:40:23;101488.91;;;31.29;30.04
35419;BME280;21525;41.240;16.500;2024-03-08T07:42:49;101494.06;;;31.82;30.52
35419;BME280;21525;41.240;16.500;2024-03-08T07:45:18;101490.25;;;31.54;30.63
35419;BME280;21525;41.240;16.500;2024-03-08T07:47:43;101490.34;;;31.33;30.53
35419;BME280;21525;41.240;16.500;2024-03-08T07:50:10;101487.72;;;31.53;30.43
35419;BME280;21525;41.240;16.500;2024-03-08T07:52:36;101500.78;;;30.76;30.91
35419;BME280;21525;41.240;16.500;2024-03-08T07:55:05;101504.69;;;31.13;30.86
35419;BME280;21525;41.240;16.500;2024-03-08T07:57:31;101495.16;;;31.70;30.47
35419;BME280;21525;41.240;16.500;2024-03-08T07:59:58;101504.88;;;30.59;31.32
35419;BME280;21525;41.240;16.500;2024-03-08T08:02:24;101508.97;;;29.56;33.10
35419;BME280;21525;41.240;16.500;2024-03-08T08:04:49;101506.59;;;29.06;33.40
35419;BME280;21525;41.240;16.500;2024-03-08T08:07:15;101514.09;;;28.44;34.10
35419;BME280;21525;41.240;16.500;2024-03-08T08:09:41;101512.16;;;28.46;34.44
35419;BME280;21525;41.240;16.500;2024-03-08T08:12:08;101514.69;;;28.00;34.95
35419;BME280;21525;41.240;16.500;2024-03-08T08:14:40;101513.53;;;27.55;34.90
35419;BME280;21525;41.240;16.500;2024-03-08T08:17:06;101503.97;;;27.27;35.28
35419;BME280;21525;41.240;16.500;2024-03-08T08:19:34;101506.72;;;27.00;35.10
35419;BME280;21525;41.240;16.500;2024-03-08T08:22:01;101512.56;;;26.80;35.95
35419;BME280;21525;41.240;16.500;2024-03-08T08:24:30;101513.44;;;26.40;35.82
35419;BME280;21525;41.240;16.500;2024-03-08T08:26:55;101512.50;;;25.59;37.30
35419;BME280;21525;41.240;16.500;2024-03-08T08:29:21;101513.47;;;25.01;38.90
35419;BME280;21525;41.240;16.500;2024-03-08T08:31:48;101512.03;;;25.38;38.47
35419;BME280;21525;41.240;16.500;2024-03-08T08:34:16;101506.97;;;24.61;39.03
35419;BME280;21525;41.240;16.500;2024-03-08T08:36:44;101503.38;;;24.62;39.06
35419;BME280;21525;41.240;16.500;2024-03-08T08:39:10;101502.66;;;24.13;40.21
35419;BME280;21525;41.240;16.500;2024-03-08T08:41:42;101502.00;;;23.62;41.93
35419;BME280;21525;41.240;16.500;2024-03-08T08:44:08;101506.50;;;24.39;40.69
35419;BME280;21525;41.240;16.500;2024-03-08T08:46:38;101498.25;;;24.73;40.10
35419;BME280;21525;41.240;16.500;2024-03-08T08:49:04;101494.53;;;24.62;40.48
35419;BME280;21525;41.240;16.500;2024-03-08T08:51:31;101507.47;;;24.06;40.91
35419;BME280;21525;41.240;16.500;2024-03-08T08:53:59;101490.72;;;25.10;39.75
35419;BME280;21525;41.240;16.500;2024-03-08T08:56:25;101498.25;;;23.98;40.25
35419;BME280;21525;41.240;16.500;2024-03-08T08:58:52;101495.75;;;24.56;40.75
35419;BME280;21525;41.240;16.500;2024-03-08T09:01:20;101506.13;;;22.67;43.34
35419;BME280;21525;41.240;16.500;2024-03-08T09:03:46;101516.78;;;22.49;43.69
35419;BME280;21525;41.240;16.500;2024-03-08T09:06:12;101502.53;;;21.60;45.26
35419;BME280;21525;41.240;16.500;2024-03-08T09:08:39;101499.59;;;21.66;45.59
35419;BME280;21525;41.240;16.500;2024-03-08T09:11:05;101496.41;;;21.77;46.30
35419;BME280;21525;41.240;16.500;2024-03-08T09:13:31;101498.78;;;21.45;47.25
35419;BME280;21525;41.240;16.500;2024-03-08T09:16:00;101496.31;;;21.61;47.04
35419;BME280;21525;41.240;16.500;2024-03-08T09:18:25;101491.81;;;23.86;44.20
35419;BME280;21525;41.240;16.500;2024-03-08T09:20:51;101493.84;;;23.17;44.79
35419;BME280;21525;41.240;16.500;2024-03-08T09:23:19;101504.72;;;22.60;46.67
35419;BME280;21525;41.240;16.500;2024-03-08T09:25:45;101504.84;;;22.23;47.75
35419;BME280;21525;41.240;16.500;2024-03-08T09:28:12;101501.06;;;22.80;45.99
35419;BME280;21525;41.240;16.500;2024-03-08T09:30:39;101500.66;;;22.36;46.43
35419;BME280;21525;41.240;16.500;2024-03-08T09:33:06;101505.63;;;22.76;47.50
35419;BME280;21525;41.240;16.500;2024-03-08T09:35:32;101500.81;;;22.33;48.16
35419;BME280;21525;41.240;16.500;2024-03-08T09:37:58;101503.28;;;22.19;48.28
35419;BME280;21525;41.240;16.500;2024-03-08T09:40:24;101496.72;;;22.08;48.17
35419;BME280;21525;41.240;16.500;2024-03-08T09:42:51;101511.31;;;21.42;48.82
35419;BME280;21525;41.240;16.500;2024-03-08T09:45:20;101507.16;;;22.65;47.26
35419;BME280;21525;41.240;16.500;2024-03-08T09:47:48;101505.72;;;21.29;49.45
35419;BME280;21525;41.240;16.500;2024-03-08T09:50:16;101504.50;;;21.93;48.49
35419;BME280;21525;41.240;16.500;2024-03-08T09:52:46;101511.78;;;20.50;51.54
35419;BME280;21525;41.240;16.500;2024-03-08T09:55:12;101510.59;;;21.57;48.87
35419;BME280;21525;41.240;16.500;2024-03-08T09:57:39;101501.44;;;21.64;48.84
35419;BME280;21525;41.240;16.500;2024-03-08T10:00:06;101497.31;;;22.67;46.15
35419;BME280;21525;41.240;16.500;2024-03-08T10:03:01;101507.66;;;21.82;46.88
35419;BME280;21525;41.240;16.500;2024-03-08T10:05:27;101505.31;;;21.57;47.99
35419;BME280;21525;41.240;16.500;2024-03-08T10:07:53;101501.44;;;21.45;48.16
35419;BME280;21525;41.240;16.500;2024-03-08T10:10:19;101507.59;;;21.65;47.83
35419;BME280;21525;41.240;16.500;2024-03-08T10:12:46;101502.28;;;21.84;47.66
35419;BME280;21525;41.240;16.500;2024-03-08T10:15:12;101506.88;;;20.19;50.32
35419;BME280;21525;41.240;16.500;2024-03-08T10:17:42;101522.56;;;20.45;48.02
35419;BME280;21525;41.240;16.500;2024-03-08T10:20:18;101499.78;;;21.24;48.72
35419;BME280;21525;41.240;16.500;2024-03-08T10:22:45;101508.63;;;20.83;48.34
35419;BME280;21525;41.240;16.500;2024-03-08T10:25:11;101494.72;;;21.18;48.05
35419;BME280;21525;41.240;16.500;2024-03-08T10:27:40;101505.72;;;20.89;49.66
35419;BME280;21525;41.240;16.500;2024-03-08T10:30:16;101498.19;;;20.79;50.08
35419;BME280;21525;41.240;16.500;2024-03-08T10:32:46;101503.97;;;20.25;50.97
35419;BME280;21525;41.240;16.500;2024-03-08T10:35:12;101504.06;;;20.02;51.11
35419;BME280;21525;41.240;16.500;2024-03-08T10:37:49;101500.16;;;20.54;50.48
35419;BME280;21525;41.240;16.500;2024-03-08T10:40:29;101508.09;;;20.32;52.56
35419;BME280;21525;41.240;16.500;2024-03-08T10:42:57;101502.34;;;20.65;52.02
35419;BME280;21525;41.240;16.500;2024-03-08T10:45:40;101507.28;;;19.87;54.03
35419;BME280;21525;41.240;16.500;2024-03-08T10:48:28;101516.16;;;18.64;56.12
35419;BME280;21525;41.240;16.500;2024-03-08T10:50:59;101510.75;;;19.17;54.90
35419;BME280;21525;41.240;16.500;2024-03-08T10:53:28;101509.38;;;18.56;57.95
35419;BME280;21525;41.240;16.500;2024-03-08T10:55:57;101508.06;;;19.19;56.42
35419;BME280;21525;41.240;16.500;2024-03-08T10:58:25;101497.84;;;19.81;55.51
35419;BME280;21525;41.240;16.500;2024-03-08T11:00:55;101499.88;;;19.51;54.98
35419;BME280;21525;41.240;16.500;2024-03-08T11:08:41;101490.16;;;19.52;56.75
35419;BME280;21525;41.240;16.500;2024-03-08T11:11:32;101493.69;;;19.04;58.41
35419;BME280;21525;41.240;16.500;2024-03-08T11:14:03;101491.28;;;18.46;58.55
35419;BME280;21525;41.240;16.500;2024-03-08T11:19:22;101474.97;;;19.35;57.40
35419;BME280;21525;41.240;16.500;2024-03-08T11:21:59;101470.91;;;20.38;53.54
35419;BME280;21525;41.240;16.500;2024-03-08T11:24:25;101463.91;;;20.36;52.00
35419;BME280;21525;41.240;16.500;2024-03-08T11:26:58;101466.81;;;18.43;55.68
35419;BME280;21525;41.240;16.500;2024-03-08T11:32:21;101459.59;;;18.48;56.52
35419;BME280;21525;41.240;16.500;2024-03-08T11:34:49;101460.34;;;18.25;57.07
35419;BME280;21525;41.240;16.500;2024-03-08T11:37:17;101466.13;;;18.88;55.82
35419;BME280;21525;41.240;16.500;2024-03-08T11:39:51;101453.28;;;19.03;55.27
35419;BME280;21525;41.240;16.500;2024-03-08T11:42:18;101459.56;;;18.99;55.39
35419;BME280;21525;41.240;16.500;2024-03-08T11:44:46;101452.16;;;18.86;58.01
35419;BME280;21525;41.240;16.500;2024-03-08T11:47:13;101455.53;;;19.14;56.96
35419;BME280;21525;41.240;16.500;2024-03-08T11:49:40;101447.25;;;19.23;57.27
35419;BME280;21525;41.240;16.500;2024-03-08T11:52:13;101443.38;;;19.10;57.39
35419;BME280;21525;41.240;16.500;2024-03-08T11:54:52;101447.28;;;18.22;59.83
35419;BME280;21525;41.240;16.500;2024-03-08T11:57:22;101436.91;;;17.91;61.60
35419;BME280;21525;41.240;16.500;2024-03-08T11:59:51;101437.00;;;17.88;63.26
35419;BME280;21525;41.240;16.500;2024-03-08T12:02:17;101430.03;;;17.58;65.52
35419;BME280;21525;41.240;16.500;2024-03-08T12:04:45;101430.56;;;18.50;63.26
35419;BME280;21525;41.240;16.500;2024-03-08T12:07:14;101432.09;;;17.77;65.16
35419;BME280;21525;41.240;16.500;2024-03-08T12:09:44;101422.53;;;18.28;64.31
35419;BME280;21525;41.240;16.500;2024-03-08T12:12:28;101410.13;;;18.56;62.01
35419;BME280;21525;41.240;16.500;2024-03-08T12:14:55;101420.09;;;18.48;60.67
35419;BME280;21525;41.240;16.500;2024-03-08T12:17:23;101411.34;;;18.48;60.46
35419;BME280;21525;41.240;16.500;2024-03-08T12:19:49;101409.25;;;18.56;61.91
35419;BME280;21525;41.240;16.500;2024-03-08T12:22:15;101403.75;;;18.63;63.06
35419;BME280;21525;41.240;16.500;2024-03-08T12:24:41;101398.75;;;19.27;60.51
35419;BME280;21525;41.240;16.500;2024-03-08T12:27:28;101405.81;;;18.29;61.11
35419;BME280;21525;41.240;16.500;2024-03-08T12:29:54;101409.75;;;18.17;63.10
35419;BME280;21525;41.240;16.500;2024-03-08T12:32:20;101410.84;;;17.84;63.50
35419;BME280;21525;41.240;16.500;2024-03-08T12:34:52;101404.53;;;18.16;62.26
35419;BME280;21525;41.240;16.500;2024-03-08T12:37:19;101395.22;;;18.05;66.66
35419;BME280;21525;41.240;16.500;2024-03-08T12:39:45;101400.84;;;17.67;67.22
35419;BME280;21525;41.240;16.500;2024-03-08T12:42:10;101402.09;;;18.09;63.47
35419;BME280;21525;41.240;16.500;2024-03-08T12:44:36;101403.78;;;17.86;63.17
35419;BME280;21525;41.240;16.500;2024-03-08T12:47:06;101406.41;;;17.86;64.23
35419;BME280;21525;41.240;16.500;2024-03-08T12:49:33;101393.78;;;18.96;61.51
35419;BME280;21525;41.240;16.500;2024-03-08T12:51:59;101400.50;;;18.55;60.10